Time;durP1;ratioP1;P1;durP2;ratioP2;P2;SDS_P1;SDS_P2;PMS_P1;PMS_P2;Temp;Humidity;BMP_temperature;BMP_pressure;BME280_temperature;BME280_humidity;BME280_pressure;Samples;Min_cycle;Max_cycle;Signal;HPM_P1;HPM_P2
2021/07/16 00:00:29;;;;;;;34.58;19.60;;;19.40;99.90;;;;;;6181711;23;20206;-68
2021/07/16 00:02:56;;;;;;;35.28;20.73;;;19.30;99.90;;;;;;6182093;23;20184;-68
2021/07/16 00:05:23;;;;;;;41.83;20.35;;;19.20;99.90;;;;;;6180894;23;20160;-68
2021/07/16 00:07:50;;;;;;;34.97;20.38;;;19.10;99.90;;;;;;6181712;23;20561;-68
2021/07/16 00:10:19;;;;;;;35.15;19.23;;;19.10;99.90;;;;;;6181547;23;20587;-68
2021/07/16 00:12:47;;;;;;;34.28;20.38;;;19.10;99.90;;;;;;6182064;23;20195;-68
2021/07/16 00:15:17;;;;;;;35.42;20.35;;;19.20;99.90;;;;;;6181410;23;20176;-68
2021/07/16 00:17:46;;;;;;;33.05;19.20;;;19.20;99.90;;;;;;6181432;23;20156;-69
2021/07/16 00:20:15;;;;;;;35.70;20.75;;;19.20;99.90;;;;;;6181532;23;20243;-68
2021/07/16 00:22:42;;;;;;;35.92;19.60;;;19.20;99.90;;;;;;6181693;23;20211;-68
2021/07/16 00:25:10;;;;;;;32.03;19.40;;;19.10;99.90;;;;;;6181800;23;20164;-69
2021/07/16 00:27:38;;;;;;;33.67;19.25;;;19.00;99.90;;;;;;6181514;23;20203;-69
2021/07/16 00:30:07;;;;;;;40.95;19.38;;;19.10;99.90;;;;;;6181789;23;20237;-68
2021/07/16 00:32:34;;;;;;;34.65;21.15;;;19.10;99.90;;;;;;6181400;23;20570;-68
2021/07/16 00:35:03;;;;;;;32.38;19.10;;;19.10;99.90;;;;;;6181590;23;20198;-68
2021/07/16 00:37:30;;;;;;;35.22;20.00;;;19.10;99.90;;;;;;6181992;23;20211;-68
2021/07/16 00:39:57;;;;;;;37.88;20.15;;;19.00;99.90;;;;;;6183161;23;20164;-68
2021/07/16 00:42:24;;;;;;;31.75;20.65;;;19.10;99.90;;;;;;6183931;23;20163;-69
2021/07/16 00:44:52;;;;;;;37.42;20.90;;;19.10;99.90;;;;;;6183589;23;20587;-69
2021/07/16 00:47:19;;;;;;;33.67;19.73;;;19.10;99.90;;;;;;6184197;23;20180;-69
2021/07/16 00:49:46;;;;;;;34.85;18.92;;;19.10;99.90;;;;;;6183059;23;20187;-69
2021/07/16 00:52:14;;;;;;;30.55;19.13;;;19.10;99.90;;;;;;6182859;23;20182;-69
2021/07/16 00:54:42;;;;;;;33.80;19.77;;;19.00;99.90;;;;;;6174697;23;20197;-72
2021/07/16 00:57:09;;;;;;;30.98;19.60;;;18.90;99.90;;;;;;6155335;23;20160;-72
2021/07/16 00:59:38;;;;;;;33.10;20.52;;;18.70;99.90;;;;;;6154215;23;20160;-72
2021/07/16 01:02:06;;;;;;;32.70;19.50;;;18.70;99.90;;;;;;6155863;23;20247;-72
2021/07/16 01:04:33;;;;;;;34.28;20.63;;;18.70;99.90;;;;;;6155676;23;20164;-72
2021/07/16 01:06:59;;;;;;;29.83;20.60;;;18.80;99.90;;;;;;6154733;23;20239;-72
2021/07/16 01:09:28;;;;;;;28.50;19.00;;;18.80;99.90;;;;;;6156036;23;20173;-72
2021/07/16 01:11:55;;;;;;;38.60;20.75;;;18.70;99.90;;;;;;6154594;23;20167;-72
2021/07/16 01:14:23;;;;;;;29.55;19.30;;;18.70;99.90;;;;;;6155562;23;20161;-72
2021/07/16 01:16:50;;;;;;;28.13;18.35;;;18.70;99.90;;;;;;6154886;23;20244;-72
2021/07/16 01:19:26;;;;;;;30.02;18.98;;;18.70;99.90;;;;;;6155810;23;20164;-72
2021/07/16 01:21:55;;;;;;;33.90;19.30;;;18.80;99.90;;;;;;6155062;23;20167;-72
2021/07/16 01:24:23;;;;;;;32.00;19.42;;;18.70;99.90;;;;;;6155657;23;20460;-72
2021/07/16 01:26:50;;;;;;;33.17;17.88;;;18.70;99.90;;;;;;6155429;23;20191;-72
2021/07/16 01:29:18;;;;;;;30.25;18.02;;;18.70;99.90;;;;;;6155532;23;20492;-72
2021/07/16 01:31:46;;;;;;;29.05;18.02;;;18.70;99.90;;;;;;6154916;23;20223;-71
2021/07/16 01:34:13;;;;;;;27.08;18.50;;;18.70;99.90;;;;;;6155151;23;20160;-72
2021/07/16 01:36:40;;;;;;;30.50;18.08;;;18.70;99.90;;;;;;6154938;23;20199;-73
2021/07/16 01:39:06;;;;;;;30.15;18.55;;;18.70;99.90;;;;;;6155009;23;20161;-72
2021/07/16 01:41:35;;;;;;;29.55;18.85;;;18.70;99.90;;;;;;6154679;23;20167;-72
2021/07/16 01:44:02;;;;;;;30.17;18.83;;;18.60;99.90;;;;;;6155176;23;20248;-72
2021/07/16 01:46:29;;;;;;;25.52;18.25;;;18.60;99.90;;;;;;6155096;23;20512;-72
2021/07/16 01:48:56;;;;;;;29.13;18.52;;;18.60;99.90;;;;;;6154756;23;20160;-72
2021/07/16 01:51:23;;;;;;;30.65;17.48;;;18.70;99.90;;;;;;6154062;23;20161;-72
2021/07/16 01:53:50;;;;;;;29.58;17.92;;;18.60;99.90;;;;;;6155520;23;20554;-74
2021/07/16 01:56:18;;;;;;;28.00;17.55;;;18.60;99.90;;;;;;6154140;23;20180;-75
2021/07/16 01:58:46;;;;;;;29.65;18.65;;;18.50;99.90;;;;;;6155358;23;20169;-74
2021/07/16 02:01:15;;;;;;;28.65;18.20;;;18.60;99.90;;;;;;6154355;23;20506;-75
2021/07/16 02:03:43;;;;;;;29.30;18.88;;;18.60;99.90;;;;;;6154857;23;20280;-74
2021/07/16 02:06:10;;;;;;;27.13;17.50;;;18.50;99.90;;;;;;6154775;23;20191;-73
2021/07/16 02:08:37;;;;;;;29.58;17.88;;;18.50;99.90;;;;;;6154728;23;20175;-73
2021/07/16 02:11:04;;;;;;;26.42;17.35;;;18.50;99.90;;;;;;6154898;23;20559;-73
2021/07/16 02:13:31;;;;;;;28.02;16.75;;;18.50;99.90;;;;;;6154971;23;20547;-73
2021/07/16 02:15:59;;;;;;;26.17;16.52;;;18.40;99.90;;;;;;6155212;23;20480;-74
2021/07/16 02:18:26;;;;;;;28.42;17.17;;;18.40;99.90;;;;;;6155010;23;20165;-74
2021/07/16 02:20:54;;;;;;;27.98;17.45;;;18.40;99.90;;;;;;6154426;23;20161;-74
2021/07/16 02:23:23;;;;;;;24.90;16.48;;;18.40;99.90;;;;;;6154764;23;20464;-74
2021/07/16 02:25:50;;;;;;;26.95;17.27;;;18.40;99.90;;;;;;6154169;23;20180;-74
2021/07/16 02:28:19;;;;;;;26.30;16.13;;;18.40;99.90;;;;;;6154763;23;20165;-75
2021/07/16 02:30:47;;;;;;;23.73;16.92;;;18.40;99.90;;;;;;6154419;23;20167;-75
2021/07/16 02:33:16;;;;;;;23.08;16.10;;;18.40;99.90;;;;;;6154512;23;20171;-75
2021/07/16 02:35:44;;;;;;;23.80;16.35;;;18.40;99.90;;;;;;6154688;23;20610;-74
2021/07/16 02:38:11;;;;;;;27.67;16.40;;;18.50;99.90;;;;;;6154741;23;20157;-74
2021/07/16 02:40:38;;;;;;;27.08;17.20;;;18.40;99.90;;;;;;6154558;23;20507;-74
2021/07/16 02:43:06;;;;;;;26.02;16.88;;;18.30;99.90;;;;;;6154628;23;20164;-74
2021/07/16 02:45:34;;;;;;;27.60;18.33;;;18.30;99.90;;;;;;6154002;23;20171;-74
2021/07/16 02:48:00;;;;;;;29.65;17.90;;;18.30;99.90;;;;;;6153554;23;20185;-74
2021/07/16 02:50:31;;;;;;;26.85;17.23;;;18.20;99.90;;;;;;6152748;23;20167;-74
2021/07/16 02:52:58;;;;;;;26.65;18.05;;;18.30;99.90;;;;;;6153194;23;20173;-74
2021/07/16 02:55:25;;;;;;;30.35;17.70;;;18.30;99.90;;;;;;6154743;23;20188;-74
2021/07/16 02:57:53;;;;;;;27.00;18.30;;;18.20;99.90;;;;;;6155508;23;20472;-74
2021/07/16 03:00:21;;;;;;;28.80;17.55;;;18.20;99.90;;;;;;6154007;23;20605;-74
2021/07/16 03:02:50;;;;;;;25.15;17.23;;;18.20;99.90;;;;;;6153936;23;20597;-74
2021/07/16 03:05:18;;;;;;;29.23;17.63;;;18.20;99.90;;;;;;6155616;23;20474;-74
2021/07/16 03:07:47;;;;;;;28.90;18.17;;;18.30;99.90;;;;;;6155086;23;20181;-74
2021/07/16 03:10:18;;;;;;;28.05;17.88;;;18.20;99.90;;;;;;6154623;23;20161;-74
2021/07/16 03:12:45;;;;;;;26.35;17.73;;;18.10;99.90;;;;;;6155016;23;20183;-74
2021/07/16 03:15:14;;;;;;;28.50;17.33;;;18.10;99.90;;;;;;6155279;23;20212;-74
2021/07/16 03:17:41;;;;;;;25.73;17.52;;;18.10;99.90;;;;;;6155483;23;20479;-74
2021/07/16 03:20:10;;;;;;;27.10;17.35;;;18.10;99.90;;;;;;6154812;23;20384;-74
2021/07/16 03:22:38;;;;;;;22.90;16.70;;;18.10;99.90;;;;;;6155431;23;20451;-74
2021/07/16 03:25:08;;;;;;;25.80;17.60;;;18.20;99.90;;;;;;6154182;23;20161;-74
2021/07/16 03:27:35;;;;;;;23.05;16.50;;;18.30;99.90;;;;;;6155328;23;20504;-74
2021/07/16 03:30:02;;;;;;;25.40;17.10;;;18.30;99.90;;;;;;6154399;23;20165;-74
2021/07/16 03:32:29;;;;;;;25.83;17.00;;;18.20;99.90;;;;;;6155407;23;20170;-74
2021/07/16 03:34:56;;;;;;;23.58;16.05;;;18.10;99.90;;;;;;6154601;23;20161;-73
2021/07/16 03:37:24;;;;;;;25.80;15.70;;;18.10;99.90;;;;;;6155214;23;20391;-73
2021/07/16 03:39:51;;;;;;;23.38;15.63;;;18.10;99.90;;;;;;6154508;23;20161;-73
2021/07/16 03:42:20;;;;;;;24.23;16.55;;;18.10;99.90;;;;;;6155022;23;20494;-73
2021/07/16 03:44:47;;;;;;;21.67;15.05;;;18.10;99.90;;;;;;6154863;23;20161;-74
2021/07/16 03:47:15;;;;;;;24.42;15.55;;;18.20;99.90;;;;;;6154802;23;20649;-73
2021/07/16 03:49:43;;;;;;;24.17;16.88;;;18.10;99.90;;;;;;6155005;23;20167;-73
2021/07/16 03:52:11;;;;;;;24.25;16.13;;;18.10;99.90;;;;;;6154591;23;20161;-73
2021/07/16 03:54:38;;;;;;;23.17;15.32;;;18.00;99.90;;;;;;6154469;23;20160;-73
2021/07/16 03:57:07;;;;;;;23.80;15.40;;;18.10;99.90;;;;;;6154795;23;20163;-73
2021/07/16 03:59:35;;;;;;;24.20;16.05;;;18.10;99.90;;;;;;6154285;23;20161;-73
2021/07/16 04:02:03;;;;;;;22.17;16.20;;;18.10;99.90;;;;;;6153129;23;20161;-73
2021/07/16 04:04:32;;;;;;;24.27;15.38;;;18.10;99.90;;;;;;6154034;23;20171;-73
2021/07/16 04:06:59;;;;;;;23.02;14.52;;;18.00;99.90;;;;;;6154213;23;20698;-73
2021/07/16 04:09:27;;;;;;;21.08;14.82;;;18.00;99.90;;;;;;6154229;23;20165;-73
2021/07/16 04:12:09;;;;;;;22.90;13.75;;;18.00;99.90;;;;;;6153958;23;20219;-74
2021/07/16 04:14:39;;;;;;;21.65;14.73;;;17.90;99.90;;;;;;6154214;23;20160;-73
2021/07/16 04:17:10;;;;;;;21.42;14.30;;;17.90;99.90;;;;;;6153904;23;20164;-73
2021/07/16 04:19:37;;;;;;;21.35;14.65;;;17.90;99.90;;;;;;6153488;23;20173;-73
2021/07/16 04:22:05;;;;;;;22.65;15.20;;;17.90;99.90;;;;;;6154299;23;20243;-73
2021/07/16 04:24:32;;;;;;;23.73;15.50;;;17.90;99.90;;;;;;6153529;23;20244;-73
2021/07/16 04:26:59;;;;;;;22.55;15.10;;;17.80;99.90;;;;;;6152671;23;20191;-73
2021/07/16 04:29:26;;;;;;;23.38;15.77;;;17.80;99.90;;;;;;6152361;23;20167;-74
2021/07/16 04:31:54;;;;;;;21.45;14.93;;;17.80;99.90;;;;;;6153223;23;20160;-74
2021/07/16 04:34:21;;;;;;;22.83;15.95;;;17.80;99.90;;;;;;6153883;23;20183;-74
2021/07/16 04:36:48;;;;;;;24.92;16.48;;;17.80;99.90;;;;;;6154014;23;20492;-73
2021/07/16 04:39:15;;;;;;;27.13;15.50;;;17.90;99.90;;;;;;6153909;23;20167;-74
2021/07/16 04:41:42;;;;;;;29.27;15.15;;;17.80;99.90;;;;;;6153131;23;20172;-73
2021/07/16 04:44:09;;;;;;;23.17;15.23;;;17.90;99.90;;;;;;6153311;23;20167;-73
2021/07/16 04:46:35;;;;;;;23.17;15.57;;;17.80;99.90;;;;;;6153303;23;20568;-73
2021/07/16 04:49:04;;;;;;;28.33;17.02;;;17.80;99.90;;;;;;6153426;23;20161;-73
2021/07/16 04:51:33;;;;;;;22.48;15.07;;;17.80;99.90;;;;;;6154381;23;20592;-73
2021/07/16 04:54:00;;;;;;;26.45;17.00;;;17.90;99.90;;;;;;6153807;23;20215;-73
2021/07/16 04:56:28;;;;;;;29.25;16.50;;;17.70;99.90;;;;;;6153719;23;20188;-73
2021/07/16 04:58:55;;;;;;;26.63;17.45;;;17.80;99.90;;;;;;6153356;23;20157;-73
2021/07/16 05:01:24;;;;;;;28.08;16.67;;;17.70;99.90;;;;;;6153792;23;20165;-73
2021/07/16 05:03:53;;;;;;;31.52;17.33;;;17.90;99.90;;;;;;6153514;23;20609;-73
2021/07/16 05:06:22;;;;;;;29.15;16.85;;;17.80;99.90;;;;;;6153963;23;20251;-73
2021/07/16 05:08:49;;;;;;;32.40;17.50;;;17.90;99.90;;;;;;6153048;23;20185;-73
2021/07/16 05:11:17;;;;;;;32.05;19.65;;;17.70;99.90;;;;;;6154180;23;20644;-74
2021/07/16 05:13:44;;;;;;;34.33;19.65;;;17.70;99.90;;;;;;6153186;23;20169;-74
2021/07/16 05:16:13;;;;;;;38.97;20.88;;;17.80;99.90;;;;;;6153729;23;20165;-74
2021/07/16 05:18:40;;;;;;;38.70;20.48;;;17.60;99.90;;;;;;6153510;23;20161;-73
2021/07/16 05:21:09;;;;;;;39.28;18.60;;;17.60;99.90;;;;;;6153867;23;20484;-73
2021/07/16 05:23:38;;;;;;;36.25;20.77;;;17.50;99.90;;;;;;6154363;23;20165;-73
2021/07/16 05:26:05;;;;;;;37.65;20.95;;;17.60;99.90;;;;;;6154199;23;20161;-73
2021/07/16 05:28:32;;;;;;;38.53;21.35;;;17.70;99.90;;;;;;6155837;23;20191;-73
2021/07/16 05:30:59;;;;;;;40.75;20.67;;;17.80;99.90;;;;;;6155690;23;20160;-74
2021/07/16 05:33:26;;;;;;;40.88;20.58;;;17.90;99.90;;;;;;6156140;23;20161;-74
2021/07/16 05:35:53;;;;;;;35.92;20.75;;;17.70;99.90;;;;;;6156040;23;20167;-74
2021/07/16 05:38:22;;;;;;;40.63;22.38;;;17.80;99.90;;;;;;6155785;23;20165;-74
2021/07/16 05:40:50;;;;;;;45.17;21.77;;;17.80;99.90;;;;;;6155333;23;20304;-73
2021/07/16 05:43:17;;;;;;;36.80;21.20;;;17.90;99.90;;;;;;6153203;23;20168;-74
2021/07/16 05:45:44;;;;;;;39.67;21.13;;;17.80;99.90;;;;;;6153654;23;20171;-73
2021/07/16 05:48:12;;;;;;;40.00;21.83;;;17.80;99.90;;;;;;6150980;23;20666;-73
2021/07/16 05:50:40;;;;;;;38.05;20.42;;;17.80;99.90;;;;;;6153367;23;20177;-74
2021/07/16 05:53:07;;;;;;;42.50;21.80;;;17.80;99.90;;;;;;6153641;23;20165;-74
2021/07/16 05:55:34;;;;;;;44.60;22.17;;;17.80;99.90;;;;;;6153406;23;20188;-74
2021/07/16 05:58:02;;;;;;;39.17;21.23;;;17.90;99.90;;;;;;6153442;23;20483;-74
2021/07/16 06:00:30;;;;;;;36.97;21.00;;;17.90;99.90;;;;;;6153575;23;20592;-74
2021/07/16 06:02:57;;;;;;;37.95;20.60;;;17.90;99.90;;;;;;6153285;23;20171;-74
2021/07/16 06:05:24;;;;;;;37.67;21.77;;;18.00;99.90;;;;;;6153381;23;20161;-74
2021/07/16 06:07:51;;;;;;;37.72;19.85;;;18.00;99.90;;;;;;6153378;23;20507;-74
2021/07/16 06:10:17;;;;;;;39.20;21.17;;;18.00;99.90;;;;;;6152964;23;20164;-73
2021/07/16 06:12:44;;;;;;;36.00;20.08;;;17.90;99.90;;;;;;6152471;23;20171;-73
2021/07/16 06:15:14;;;;;;;37.65;20.55;;;17.80;99.90;;;;;;6153232;23;20171;-74
2021/07/16 06:17:41;;;;;;;38.75;21.17;;;17.90;99.90;;;;;;6153603;23;20161;-74
2021/07/16 06:20:10;;;;;;;40.10;20.38;;;17.90;99.90;;;;;;6152234;23;20176;-73
2021/07/16 06:22:37;;;;;;;36.78;19.73;;;17.90;99.90;;;;;;6153772;23;20168;-74
2021/07/16 06:25:05;;;;;;;35.90;19.98;;;17.90;99.90;;;;;;6153225;23;20599;-74
2021/07/16 06:27:32;;;;;;;38.20;19.95;;;18.00;99.90;;;;;;6153555;23;20627;-74
2021/07/16 06:29:59;;;;;;;40.25;19.77;;;17.90;99.90;;;;;;6152587;23;20165;-74
2021/07/16 06:32:27;;;;;;;41.70;20.13;;;17.90;99.90;;;;;;6153169;23;20164;-74
2021/07/16 06:34:54;;;;;;;39.60;20.25;;;17.90;99.90;;;;;;6152266;23;20161;-74
2021/07/16 06:37:21;;;;;;;37.80;19.27;;;17.90;99.90;;;;;;6153404;23;20625;-74
2021/07/16 06:39:47;;;;;;;34.65;18.70;;;18.00;99.90;;;;;;6152415;23;20239;-74
2021/07/16 06:42:14;;;;;;;41.13;19.23;;;18.00;99.90;;;;;;6153191;23;20164;-74
2021/07/16 06:44:41;;;;;;;39.63;20.67;;;18.00;99.90;;;;;;6153085;23;20171;-74
2021/07/16 06:47:08;;;;;;;38.30;20.10;;;18.10;99.90;;;;;;6150028;23;20171;-73
2021/07/16 06:49:36;;;;;;;34.60;19.40;;;18.10;99.90;;;;;;6152639;23;20227;-73
2021/07/16 06:52:04;;;;;;;36.25;18.65;;;18.00;99.90;;;;;;6152842;23;20165;-73
2021/07/16 06:54:30;;;;;;;44.47;18.88;;;18.00;99.90;;;;;;6153078;23;20614;-73
2021/07/16 06:56:57;;;;;;;34.30;18.77;;;18.00;99.90;;;;;;6152880;23;20247;-73
2021/07/16 06:59:24;;;;;;;38.58;18.50;;;18.00;99.90;;;;;;6152986;23;20167;-73
2021/07/16 07:01:51;;;;;;;38.67;18.35;;;18.10;99.90;;;;;;6153059;23;20169;-73
2021/07/16 07:04:18;;;;;;;34.42;17.20;;;18.10;99.90;;;;;;6153311;23;20499;-73
2021/07/16 07:06:46;;;;;;;36.80;17.95;;;18.20;99.90;;;;;;6152957;23;20161;-73
2021/07/16 07:09:13;;;;;;;36.50;17.10;;;18.20;99.90;;;;;;6153095;23;20206;-73
2021/07/16 07:11:40;;;;;;;33.55;16.90;;;18.30;99.90;;;;;;6152248;23;20172;-73
2021/07/16 07:14:07;;;;;;;36.53;17.48;;;18.30;99.90;;;;;;6153049;23;20160;-73
2021/07/16 07:16:35;;;;;;;34.80;16.83;;;18.30;99.90;;;;;;6152851;23;20167;-73
2021/07/16 07:19:02;;;;;;;36.83;16.52;;;18.20;99.90;;;;;;6152812;23;20751;-73
2021/07/16 07:21:29;;;;;;;34.08;15.85;;;18.10;99.90;;;;;;6152114;23;20178;-73
2021/07/16 07:23:58;;;;;;;32.00;15.10;;;18.20;99.90;;;;;;6152287;23;20187;-73
2021/07/16 07:26:25;;;;;;;37.25;16.52;;;18.20;99.90;;;;;;6152385;23;20165;-73
2021/07/16 07:28:51;;;;;;;30.15;14.82;;;18.30;99.90;;;;;;6152473;23;20184;-73
2021/07/16 07:31:18;;;;;;;32.70;17.00;;;18.20;99.90;;;;;;6152244;23;20165;-73
2021/07/16 07:33:45;;;;;;;42.55;16.65;;;18.20;99.90;;;;;;6152394;23;20655;-73
2021/07/16 07:36:12;;;;;;;35.08;15.85;;;18.40;99.90;;;;;;6152528;23;20168;-73
2021/07/16 07:38:39;;;;;;;33.35;15.80;;;18.50;99.90;;;;;;6152577;23;20157;-73
2021/07/16 07:41:07;;;;;;;33.17;16.52;;;18.50;99.90;;;;;;6152563;23;20211;-74
2021/07/16 07:43:34;;;;;;;33.30;15.82;;;18.60;99.90;;;;;;6152732;23;20479;-74
2021/07/16 07:46:01;;;;;;;34.40;16.83;;;18.50;99.90;;;;;;6152819;23;20164;-73
2021/07/16 07:48:28;;;;;;;36.58;16.02;;;18.60;99.90;;;;;;6149890;23;20568;-73
2021/07/16 07:50:54;;;;;;;27.70;14.25;;;18.40;99.90;;;;;;6152291;23;20514;-73
2021/07/16 07:53:21;;;;;;;27.30;14.98;;;18.40;99.90;;;;;;6152465;23;20165;-73
2021/07/16 07:55:48;;;;;;;32.95;14.88;;;18.60;99.90;;;;;;6152384;23;20195;-73
2021/07/16 07:58:16;;;;;;;32.88;16.35;;;18.60;99.90;;;;;;6152497;23;20170;-73
2021/07/16 08:00:43;;;;;;;32.03;15.77;;;18.70;99.90;;;;;;6152141;23;20165;-73
2021/07/16 08:03:11;;;;;;;33.65;14.95;;;18.40;99.90;;;;;;6152726;23;20588;-73
2021/07/16 08:05:38;;;;;;;33.38;15.35;;;18.50;99.90;;;;;;6152477;23;20163;-73
2021/07/16 08:08:05;;;;;;;29.83;14.32;;;18.50;99.90;;;;;;6151738;23;20184;-73
2021/07/16 08:10:32;;;;;;;34.42;15.95;;;18.70;99.90;;;;;;6151624;23;20165;-73
2021/07/16 08:12:59;;;;;;;29.33;15.20;;;18.70;99.90;;;;;;6152542;23;20164;-73
2021/07/16 08:15:28;;;;;;;34.03;15.10;;;18.90;99.90;;;;;;6152390;23;20271;-73
2021/07/16 08:17:54;;;;;;;35.13;15.60;;;18.70;99.90;;;;;;6152077;23;20168;-74
2021/07/16 08:20:21;;;;;;;33.50;15.55;;;18.80;99.90;;;;;;6152343;23;20222;-74
2021/07/16 08:22:48;;;;;;;32.25;15.52;;;18.80;99.90;;;;;;6152524;23;20171;-74
2021/07/16 08:25:15;;;;;;;34.42;15.63;;;18.80;99.90;;;;;;6152082;23;20164;-74
2021/07/16 08:27:42;;;;;;;31.70;16.20;;;18.70;99.90;;;;;;6151988;23;20164;-73
2021/07/16 08:30:11;;;;;;;29.98;16.08;;;18.70;99.90;;;;;;6152364;23;20160;-74
2021/07/16 08:32:39;;;;;;;30.25;15.18;;;18.70;99.90;;;;;;6152083;23;20171;-73
2021/07/16 08:35:07;;;;;;;28.52;15.63;;;18.80;99.90;;;;;;6152700;23;20214;-73
2021/07/16 08:37:35;;;;;;;29.13;14.85;;;19.00;99.90;;;;;;6152396;23;20161;-71
2021/07/16 08:40:03;;;;;;;28.33;13.80;;;19.00;99.90;;;;;;6152049;23;20157;-71
2021/07/16 08:42:30;;;;;;;30.27;14.35;;;19.10;99.90;;;;;;6152566;23;20171;-71
2021/07/16 08:44:57;;;;;;;30.02;13.88;;;19.10;99.90;;;;;;6152959;23;20494;-71
2021/07/16 08:47:24;;;;;;;29.98;14.18;;;18.90;99.90;;;;;;6150272;23;20266;-71
2021/07/16 08:49:54;;;;;;;32.40;15.02;;;19.00;99.90;;;;;;6153331;23;20188;-71
2021/07/16 08:52:23;;;;;;;33.45;14.27;;;19.10;99.90;;;;;;6154751;23;20161;-71
2021/07/16 08:54:50;;;;;;;30.67;14.23;;;19.20;99.90;;;;;;6153765;23;20188;-71
2021/07/16 08:57:18;;;;;;;32.33;15.65;;;19.20;99.90;;;;;;6154852;23;20247;-72
2021/07/16 08:59:45;;;;;;;24.35;13.88;;;19.40;99.90;;;;;;6155412;23;20161;-71
2021/07/16 09:02:12;;;;;;;25.88;13.38;;;19.60;99.90;;;;;;6154266;23;20677;-71
2021/07/16 09:04:41;;;;;;;33.70;14.18;;;19.60;99.90;;;;;;6154146;23;20165;-71
2021/07/16 09:07:10;;;;;;;27.42;13.10;;;19.60;99.90;;;;;;6154432;23;20171;-72
2021/07/16 09:09:38;;;;;;;26.05;13.52;;;19.50;99.90;;;;;;6154051;23;20188;-71
2021/07/16 09:12:08;;;;;;;27.23;13.30;;;19.70;99.90;;;;;;6154413;23;20165;-71
2021/07/16 09:14:35;;;;;;;30.90;13.52;;;19.90;99.90;;;;;;6154122;23;20279;-71
2021/07/16 09:17:04;;;;;;;27.80;12.63;;;19.90;99.90;;;;;;6154239;23;20164;-71
2021/07/16 09:19:34;;;;;;;28.17;14.07;;;20.10;99.90;;;;;;6153690;23;20167;-71
2021/07/16 09:22:03;;;;;;;28.33;14.63;;;20.20;99.90;;;;;;6154064;23;20165;-71
2021/07/16 09:24:31;;;;;;;24.80;13.43;;;19.90;99.90;;;;;;6153706;23;20164;-71
2021/07/16 09:26:58;;;;;;;27.95;13.45;;;19.70;99.90;;;;;;6153493;23;20165;-71
2021/07/16 09:29:29;;;;;;;26.92;14.18;;;19.70;99.90;;;;;;6154065;23;20255;-71
2021/07/16 09:32:04;;;;;;;24.00;12.70;;;19.70;99.90;;;;;;6153272;23;20564;-71
2021/07/16 09:34:31;;;;;;;25.55;13.90;;;19.80;99.90;;;;;;6154113;23;20174;-71
2021/07/16 09:37:06;;;;;;;26.55;13.20;;;19.90;99.90;;;;;;6153819;23;20171;-71
2021/07/16 09:39:35;;;;;;;25.42;14.25;;;19.90;99.90;;;;;;6153592;23;20160;-72
2021/07/16 09:42:04;;;;;;;29.48;13.70;;;19.70;99.90;;;;;;6153410;23;20171;-71
2021/07/16 09:44:33;;;;;;;27.17;13.60;;;19.70;99.90;;;;;;6154013;23;20165;-72
2021/07/16 09:47:11;;;;;;;24.27;12.20;;;19.80;99.90;;;;;;6153397;23;20164;-72
2021/07/16 09:49:39;;;;;;;27.58;13.38;;;19.60;99.90;;;;;;6153358;23;20191;-72
2021/07/16 09:52:10;;;;;;;25.45;13.18;;;19.70;99.90;;;;;;6153191;23;20165;-71
2021/07/16 09:55:00;;;;;;;21.48;12.23;;;19.90;99.90;;;;;;6153798;23;20176;-71
2021/07/16 09:57:45;;;;;;;27.13;12.88;;;19.80;99.90;;;;;;6153211;23;20184;-71
2021/07/16 10:00:17;;;;;;;25.17;12.57;;;20.30;99.90;;;;;;6151262;23;20187;-71
2021/07/16 10:02:46;;;;;;;24.52;11.95;;;20.40;99.90;;;;;;6153859;23;20470;-71
2021/07/16 10:05:13;;;;;;;26.10;12.27;;;20.30;99.90;;;;;;6153902;23;20219;-71
2021/07/16 10:07:41;;;;;;;22.25;10.73;;;20.50;99.90;;;;;;6153073;23;20161;-71
2021/07/16 10:10:10;;;;;;;24.10;11.35;;;20.40;99.90;;;;;;6152607;23;20224;-71
2021/07/16 10:12:38;;;;;;;21.23;10.63;;;20.30;99.90;;;;;;6153573;23;20494;-71
2021/07/16 10:15:09;;;;;;;23.63;10.48;;;20.40;99.90;;;;;;6152965;23;20169;-71
2021/07/16 10:17:37;;;;;;;22.38;10.35;;;20.50;99.90;;;;;;6153744;23;20168;-71
2021/07/16 10:20:05;;;;;;;25.17;11.10;;;20.60;99.90;;;;;;6153539;23;20475;-72
2021/07/16 10:22:32;;;;;;;23.40;10.20;;;20.90;99.90;;;;;;6153544;23;20661;-73
2021/07/16 10:24:59;;;;;;;23.30;9.63;;;21.10;99.90;;;;;;6153267;23;20161;-73
2021/07/16 10:27:26;;;;;;;23.55;10.10;;;21.20;99.90;;;;;;6153146;23;20244;-74
2021/07/16 10:30:08;;;;;;;18.60;9.32;;;21.20;99.90;;;;;;6152982;23;20184;-73
2021/07/16 10:32:42;;;;;;;18.13;8.52;;;21.10;99.90;;;;;;6150639;23;20171;-73
2021/07/16 10:35:18;;;;;;;19.77;8.73;;;21.20;99.90;;;;;;6152024;23;20622;-74
2021/07/16 10:37:45;;;;;;;20.70;8.85;;;21.60;99.90;;;;;;6151963;23;20207;-73
2021/07/16 10:40:43;;;;;;;19.58;9.23;;;21.50;99.90;;;;;;6152305;23;20460;-73
2021/07/16 10:43:32;;;;;;;18.92;8.73;;;21.30;99.90;;;;;;6149586;23;20180;-73
2021/07/16 10:46:03;;;;;;;25.13;10.63;;;21.60;99.90;;;;;;6151714;23;20212;-74
2021/07/16 10:48:41;;;;;;;16.65;8.07;;;21.20;99.90;;;;;;6151944;23;20219;-74
2021/07/16 10:51:24;;;;;;;21.75;8.73;;;21.10;99.90;;;;;;6151816;23;20167;-73
2021/07/16 10:53:51;;;;;;;23.45;9.77;;;21.40;99.90;;;;;;6152059;23;20658;-73
2021/07/16 10:56:19;;;;;;;19.52;8.75;;;21.40;99.90;;;;;;6151334;23;20184;-73
2021/07/16 10:58:50;;;;;;;21.50;9.60;;;21.50;99.90;;;;;;6149786;23;20727;-72
2021/07/16 11:01:34;;;;;;;19.67;9.15;;;21.30;99.90;;;;;;6151712;23;20228;-72
2021/07/16 11:04:04;;;;;;;17.23;9.38;;;21.30;99.90;;;;;;6152260;23;20614;-72
2021/07/16 11:06:49;;;;;;;19.52;9.23;;;21.30;99.90;;;;;;6152044;23;20604;-72
2021/07/16 11:09:34;;;;;;;19.50;9.57;;;21.40;99.90;;;;;;6151895;23;20239;-72
2021/07/16 11:12:29;;;;;;;17.13;8.95;;;21.50;99.90;;;;;;6151469;23;20168;-72
2021/07/16 11:14:58;;;;;;;18.30;8.70;;;21.50;99.90;;;;;;6151815;23;20675;-72
2021/07/16 11:17:31;;;;;;;16.02;8.85;;;21.60;99.90;;;;;;6151655;23;20160;-73
2021/07/16 11:20:09;;;;;;;17.35;8.35;;;21.40;99.90;;;;;;6152049;23;20161;-73
2021/07/16 11:23:01;;;;;;;15.57;8.35;;;21.50;99.90;;;;;;6151902;23;20621;-73
2021/07/16 11:25:29;;;;;;;12.32;7.72;;;21.60;99.90;;;;;;6152332;23;20217;-74
2021/07/16 11:27:56;;;;;;;17.50;8.63;;;21.70;99.90;;;;;;6151514;23;20248;-74
2021/07/16 11:30:23;;;;;;;19.30;8.90;;;21.70;99.90;;;;;;6151596;23;20506;-74
2021/07/16 11:32:52;;;;;;;16.77;8.45;;;21.60;99.90;;;;;;6151630;23;20475;-74
2021/07/16 11:35:20;;;;;;;12.65;8.07;;;21.80;99.90;;;;;;6149017;23;20570;-74
2021/07/16 11:37:49;;;;;;;19.95;9.65;;;21.50;99.90;;;;;;6141134;23;20483;-74
2021/07/16 11:40:19;;;;;;;16.52;8.98;;;21.40;99.90;;;;;;6139838;23;20184;-74
2021/07/16 11:42:50;;;;;;;17.63;8.30;;;21.50;99.90;;;;;;6143200;23;20184;-74
2021/07/16 11:45:21;;;;;;;16.25;8.50;;;21.50;99.90;;;;;;6143554;23;20520;-74
2021/07/16 11:47:48;;;;;;;15.30;7.70;;;21.50;99.90;;;;;;6143280;23;20187;-74
2021/07/16 11:50:17;;;;;;;12.48;7.93;;;21.60;99.90;;;;;;6142582;23;20210;-74
2021/07/16 11:52:47;;;;;;;20.23;9.18;;;21.90;99.90;;;;;;6144815;23;20191;-74
2021/07/16 11:55:16;;;;;;;15.07;8.02;;;22.10;99.90;;;;;;6143646;23;20215;-74
2021/07/16 11:57:54;;;;;;;18.90;8.45;;;22.30;99.90;;;;;;6142118;23;20188;-74
2021/07/16 12:00:22;;;;;;;16.75;7.90;;;22.00;99.90;;;;;;6141046;23;20645;-74
2021/07/16 12:02:49;;;;;;;16.13;8.40;;;22.00;99.90;;;;;;6143357;23;20187;-74
2021/07/16 12:05:21;;;;;;;19.23;8.40;;;21.90;99.90;;;;;;6145110;23;20649;-74
2021/07/16 12:07:49;;;;;;;17.73;8.60;;;21.90;99.90;;;;;;6144729;23;20188;-74
2021/07/16 12:10:18;;;;;;;17.08;9.02;;;21.80;99.90;;;;;;6146960;23;20670;-74
2021/07/16 12:12:45;;;;;;;15.18;8.95;;;21.80;99.90;;;;;;6142349;23;20191;-74
2021/07/16 12:15:17;;;;;;;17.77;8.88;;;21.70;99.90;;;;;;6144801;23;20184;-74
2021/07/16 12:17:52;;;;;;;15.48;8.50;;;21.60;99.90;;;;;;6145952;23;20518;-74
2021/07/16 12:20:25;;;;;;;15.48;8.77;;;21.80;99.90;;;;;;6146837;23;20577;-74
2021/07/16 12:22:52;;;;;;;21.02;8.93;;;22.00;99.90;;;;;;6146767;23;20188;-74
2021/07/16 12:25:20;;;;;;;22.35;8.82;;;22.00;99.90;;;;;;6147647;23;20193;-74
2021/07/16 12:28:02;;;;;;;19.92;9.15;;;22.20;99.90;;;;;;6148061;23;20657;-74
2021/07/16 12:30:29;;;;;;;19.42;9.00;;;22.30;99.90;;;;;;6141455;23;20553;-75
2021/07/16 12:33:01;;;;;;;21.90;9.48;;;22.30;99.90;;;;;;6141673;23;20195;-74
2021/07/16 12:35:30;;;;;;;19.70;10.25;;;22.30;99.90;;;;;;6143178;23;20184;-74